Time;durP1;ratioP1;P1;durP2;ratioP2;P2;SDS_P1;SDS_P2;PMS_P1;PMS_P2;Temp;Humidity;BMP_temperature;BMP_pressure;BME280_temperature;BME280_humidity;BME280_pressure;Samples;Min_cycle;Max_cycle;Signal;HPM_P1;HPM_P2
2023/11/15 00:02:02;;;;;;;6.60;2.20;;;;;;;;;;104106;1283;545067;-69
2023/11/15 00:05:40;;;;;;;5.80;2.10;;;;;;;;;;103508;1296;544779;-69
2023/11/15 00:09:18;;;;;;;7.00;2.60;;;;;;;;;;103474;1292;544871;-69
2023/11/15 00:12:55;;;;;;;6.10;1.90;;;;;;;;;;104034;1289;544980;-69
2023/11/15 00:16:31;;;;;;;7.40;2.30;;;;;;;;;;103533;1291;545508;-69
2023/11/15 00:20:12;;;;;;;5.90;2.30;;;;;;;;;;103620;1292;545165;-70
2023/11/15 00:23:47;;;;;;;6.90;2.20;;;;;;;;;;104261;1283;545178;-69
2023/11/15 00:27:26;;;;;;;6.00;2.20;;;;;;;;;;103676;1289;546026;-69
2023/11/15 00:31:02;;;;;;;6.00;2.00;;;;;;;;;;103582;1291;545580;-69
2023/11/15 00:34:39;;;;;;;4.40;1.80;;;;;;;;;;103594;1292;545282;-69
2023/11/15 00:38:17;;;;;;;6.80;1.90;;;;;;;;;;103633;1289;544941;-70
2023/11/15 00:41:54;;;;;;;7.60;2.20;;;;;;;;;;103713;1293;544976;-69
2023/11/15 00:45:31;;;;;;;5.70;1.60;;;;;;;;;;103520;1291;545585;-69
2023/11/15 00:49:08;;;;;;;4.20;1.40;;;;;;;;;;103491;1295;545336;-69
2023/11/15 00:52:46;;;;;;;5.50;1.20;;;;;;;;;;105308;1292;544874;-70
2023/11/15 00:56:20;;;;;;;3.60;1.20;;;;;;;;;;103771;1288;545126;-71
2023/11/15 01:00:07;;;;;;;3.20;1.20;;;;;;;;;;103742;1291;545043;-69
2023/11/15 01:03:55;;;;;;;2.80;1.10;;;;;;;;;;103786;1294;545006;-69
2023/11/15 01:07:17;;;;;;;4.70;1.50;;;;;;;;;;103583;1291;544794;-68
2023/11/15 01:10:57;;;;;;;4.00;1.30;;;;;;;;;;103623;1289;544781;-69
2023/11/15 01:14:33;;;;;;;7.10;2.40;;;;;;;;;;103570;1291;544969;-69
2023/11/15 01:18:07;;;;;;;7.20;2.10;;;;;;;;;;103949;1289;544872;-68
2023/11/15 01:21:46;;;;;;;9.80;4.30;;;;;;;;;;103711;1290;544950;-69
2023/11/15 01:25:30;;;;;;;8.40;3.50;;;;;;;;;;104150;1283;544934;-69
2023/11/15 01:29:01;;;;;;;7.60;2.90;;;;;;;;;;103749;1291;545229;-69
2023/11/15 01:32:40;;;;;;;5.60;1.90;;;;;;;;;;103795;1293;544984;-69
2023/11/15 01:36:22;;;;;;;5.30;1.90;;;;;;;;;;103586;1292;548017;-69
2023/11/15 01:39:50;;;;;;;4.70;1.90;;;;;;;;;;104005;1289;546080;-70
2023/11/15 01:43:31;;;;;;;4.50;1.60;;;;;;;;;;104103;1289;544751;-69
2023/11/15 01:47:09;;;;;;;5.30;1.80;;;;;;;;;;103755;1289;544760;-70
2023/11/15 01:50:46;;;;;;;4.80;1.60;;;;;;;;;;103710;1292;544795;-69
2023/11/15 01:54:24;;;;;;;5.40;1.60;;;;;;;;;;103721;1288;544920;-69
2023/11/15 01:58:01;;;;;;;4.60;1.40;;;;;;;;;;103682;1289;545059;-69
2023/11/15 02:01:39;;;;;;;3.00;1.20;;;;;;;;;;103796;1290;545894;-69
2023/11/15 02:05:16;;;;;;;3.60;0.90;;;;;;;;;;103772;1289;544857;-69
2023/11/15 02:08:53;;;;;;;3.90;1.10;;;;;;;;;;103811;1291;544838;-69
2023/11/15 02:12:30;;;;;;;3.20;1.10;;;;;;;;;;103732;1292;545585;-70
2023/11/15 02:16:10;;;;;;;2.60;0.90;;;;;;;;;;103711;1290;545525;-69
2023/11/15 02:19:46;;;;;;;4.10;1.10;;;;;;;;;;103723;1290;544828;-70
2023/11/15 02:23:21;;;;;;;2.20;0.80;;;;;;;;;;104152;1289;545024;-72
2023/11/15 02:27:01;;;;;;;2.20;0.70;;;;;;;;;;103737;1292;544732;-69
2023/11/15 02:30:38;;;;;;;2.70;0.80;;;;;;;;;;103531;1291;544968;-70
2023/11/15 02:34:15;;;;;;;1.60;0.50;;;;;;;;;;103622;1302;544987;-69
2023/11/15 02:37:53;;;;;;;1.90;0.60;;;;;;;;;;103841;1290;544824;-69
2023/11/15 02:41:30;;;;;;;1.80;0.60;;;;;;;;;;103629;1290;546011;-71
2023/11/15 02:45:10;;;;;;;3.10;0.60;;;;;;;;;;103633;1294;545161;-69
2023/11/15 02:48:42;;;;;;;1.00;0.40;;;;;;;;;;103832;1292;544762;-69
2023/11/15 02:52:22;;;;;;;1.80;0.50;;;;;;;;;;103760;1290;544609;-70
2023/11/15 02:56:00;;;;;;;0.80;0.40;;;;;;;;;;103834;1289;545716;-69
2023/11/15 02:59:38;;;;;;;1.30;0.50;;;;;;;;;;103459;1295;545629;-69
2023/11/15 03:03:15;;;;;;;1.60;0.70;;;;;;;;;;103687;1292;545503;-69
2023/11/15 03:06:53;;;;;;;5.70;0.90;;;;;;;;;;103738;1289;544956;-69
2023/11/15 03:10:30;;;;;;;1.80;0.70;;;;;;;;;;103848;1288;545836;-69
2023/11/15 03:14:08;;;;;;;1.90;0.60;;;;;;;;;;103715;1302;544980;-69
2023/11/15 03:17:45;;;;;;;2.50;0.80;;;;;;;;;;103727;1295;545548;-70
2023/11/15 03:21:22;;;;;;;1.90;0.60;;;;;;;;;;103938;1285;545678;-70
2023/11/15 03:25:00;;;;;;;2.60;0.70;;;;;;;;;;103632;1292;544843;-70
2023/11/15 03:28:38;;;;;;;2.30;0.70;;;;;;;;;;103780;1292;545650;-69
2023/11/15 03:32:15;;;;;;;3.40;0.90;;;;;;;;;;103702;1290;545518;-69
2023/11/15 03:35:52;;;;;;;2.70;0.70;;;;;;;;;;103679;1291;544836;-68
2023/11/15 03:39:31;;;;;;;2.50;0.90;;;;;;;;;;103737;1292;544802;-70
2023/11/15 03:43:08;;;;;;;2.90;0.90;;;;;;;;;;103648;1292;544903;-70
2023/11/15 03:46:45;;;;;;;2.50;0.90;;;;;;;;;;103691;1289;544730;-70
2023/11/15 03:50:22;;;;;;;2.60;0.80;;;;;;;;;;103663;1292;544949;-70
2023/11/15 03:54:05;;;;;;;2.90;0.90;;;;;;;;;;103675;1294;548128;-71
2023/11/15 03:57:37;;;;;;;4.10;1.20;;;;;;;;;;103710;1289;544867;-68
2023/11/15 04:01:20;;;;;;;3.90;1.50;;;;;;;;;;104036;1284;547933;-69
2023/11/15 04:04:52;;;;;;;3.20;1.20;;;;;;;;;;103401;1298;544796;-70
2023/11/15 04:08:30;;;;;;;3.50;1.40;;;;;;;;;;103609;1292;545298;-70
2023/11/15 04:12:07;;;;;;;2.40;0.70;;;;;;;;;;103768;1290;544794;-70
2023/11/15 04:15:40;;;;;;;1.60;0.70;;;;;;;;;;103850;1289;545255;-70
2023/11/15 04:19:22;;;;;;;1.60;0.60;;;;;;;;;;103509;1292;545755;-69
2023/11/15 04:22:59;;;;;;;1.90;0.60;;;;;;;;;;103616;1292;544726;-71
2023/11/15 04:26:37;;;;;;;1.60;0.40;;;;;;;;;;103712;1289;545164;-70
2023/11/15 04:30:15;;;;;;;2.30;0.70;;;;;;;;;;103373;1291;545159;-70
2023/11/15 04:33:54;;;;;;;1.40;0.60;;;;;;;;;;103674;1290;545462;-69
2023/11/15 04:37:29;;;;;;;1.50;0.60;;;;;;;;;;104016;1289;544890;-70
2023/11/15 04:41:07;;;;;;;1.70;0.60;;;;;;;;;;103809;1290;544832;-70
2023/11/15 04:44:45;;;;;;;2.90;0.70;;;;;;;;;;103689;1290;544846;-69
2023/11/15 04:48:22;;;;;;;3.70;0.80;;;;;;;;;;103820;1288;545508;-70
2023/11/15 04:51:59;;;;;;;2.90;0.80;;;;;;;;;;103634;1289;545038;-70
2023/11/15 04:55:36;;;;;;;2.50;0.70;;;;;;;;;;103772;1289;544781;-70
2023/11/15 04:59:14;;;;;;;3.00;0.60;;;;;;;;;;103600;1292;545664;-69
2023/11/15 05:02:52;;;;;;;2.50;0.60;;;;;;;;;;103764;1294;545854;-69
2023/11/15 05:06:29;;;;;;;1.10;0.50;;;;;;;;;;103677;1291;545024;-70
2023/11/15 05:10:06;;;;;;;2.80;0.70;;;;;;;;;;103654;1288;544990;-70
2023/11/15 05:13:44;;;;;;;1.30;0.40;;;;;;;;;;103798;1299;545485;-70
2023/11/15 05:17:21;;;;;;;1.80;0.50;;;;;;;;;;103736;1291;545028;-70
2023/11/15 05:20:58;;;;;;;2.30;0.70;;;;;;;;;;103836;1289;544739;-70
2023/11/15 05:24:36;;;;;;;1.70;0.50;;;;;;;;;;103737;1299;544757;-71
2023/11/15 05:28:14;;;;;;;2.60;0.40;;;;;;;;;;103742;1289;546019;-70
2023/11/15 05:31:51;;;;;;;1.70;0.60;;;;;;;;;;103716;1288;545065;-72
2023/11/15 05:35:29;;;;;;;1.90;0.50;;;;;;;;;;103742;1288;545739;-71
2023/11/15 05:39:06;;;;;;;1.60;0.50;;;;;;;;;;103744;1291;545536;-71
2023/11/15 05:42:44;;;;;;;3.00;0.60;;;;;;;;;;103719;1290;545577;-71
2023/11/15 05:46:21;;;;;;;2.00;0.60;;;;;;;;;;103750;1289;544804;-70
2023/11/15 05:49:58;;;;;;;2.90;0.90;;;;;;;;;;103743;1292;544750;-70
2023/11/15 05:53:36;;;;;;;2.80;0.60;;;;;;;;;;103642;1292;545545;-70
2023/11/15 05:57:13;;;;;;;3.30;0.80;;;;;;;;;;103791;1289;546299;-70
2023/11/15 06:00:48;;;;;;;2.90;0.80;;;;;;;;;;103753;1287;545503;-70
2023/11/15 06:04:28;;;;;;;2.50;0.80;;;;;;;;;;103681;1302;545759;-69
2023/11/15 06:08:06;;;;;;;2.70;1.10;;;;;;;;;;103810;1290;544731;-69
2023/11/15 06:11:43;;;;;;;2.20;0.90;;;;;;;;;;103753;1289;545583;-70
2023/11/15 06:15:21;;;;;;;2.30;0.90;;;;;;;;;;103531;1292;545060;-72
2023/11/15 06:18:58;;;;;;;2.50;0.90;;;;;;;;;;103760;1291;544768;-72
2023/11/15 06:22:38;;;;;;;2.80;0.90;;;;;;;;;;104721;1281;544993;-73
2023/11/15 06:26:19;;;;;;;2.70;0.90;;;;;;;;;;103718;1290;548114;-71
2023/11/15 06:29:50;;;;;;;3.00;0.80;;;;;;;;;;103756;1289;545361;-71
2023/11/15 06:33:33;;;;;;;3.80;1.20;;;;;;;;;;103602;1298;548058;-73
2023/11/15 06:37:12;;;;;;;3.70;1.20;;;;;;;;;;103651;1293;548224;-72
2023/11/15 06:40:43;;;;;;;3.70;0.70;;;;;;;;;;103897;1288;544732;-71
2023/11/15 06:44:16;;;;;;;2.50;0.90;;;;;;;;;;104026;1292;545139;-72
2023/11/15 06:48:00;;;;;;;2.10;0.90;;;;;;;;;;103464;1297;544920;-72
2023/11/15 06:51:48;;;;;;;3.50;1.00;;;;;;;;;;103805;1288;547817;-72
2023/11/15 06:55:13;;;;;;;2.50;0.80;;;;;;;;;;103666;1302;545974;-70
2023/11/15 06:58:51;;;;;;;2.00;0.80;;;;;;;;;;103776;1292;545053;-70
2023/11/15 07:02:28;;;;;;;2.50;0.80;;;;;;;;;;103759;1292;544862;-70
2023/11/15 07:06:06;;;;;;;4.40;1.20;;;;;;;;;;103765;1295;544915;-73
2023/11/15 07:09:43;;;;;;;3.60;0.70;;;;;;;;;;103799;1290;544721;-72
2023/11/15 07:13:22;;;;;;;2.40;0.80;;;;;;;;;;103525;1294;545003;-72
2023/11/15 07:16:58;;;;;;;3.50;1.00;;;;;;;;;;103989;1286;544949;-71
2023/11/15 07:20:37;;;;;;;3.30;0.90;;;;;;;;;;104339;1285;544906;-69
2023/11/15 07:24:13;;;;;;;4.10;1.30;;;;;;;;;;103652;1298;545110;-70
2023/11/15 07:27:46;;;;;;;5.40;2.00;;;;;;;;;;103988;1292;545347;-70
2023/11/15 07:31:28;;;;;;;5.90;2.00;;;;;;;;;;103702;1292;545055;-73
2023/11/15 07:35:05;;;;;;;3.80;1.30;;;;;;;;;;104568;1285;544756;-72
2023/11/15 07:38:42;;;;;;;5.90;1.60;;;;;;;;;;104849;1283;545356;-71
2023/11/15 07:42:19;;;;;;;10.40;2.60;;;;;;;;;;103649;1291;544809;-73
2023/11/15 07:45:59;;;;;;;10.50;3.10;;;;;;;;;;103783;1291;545417;-72
2023/11/15 07:49:36;;;;;;;6.00;1.60;;;;;;;;;;103764;1291;545048;-72
2023/11/15 07:53:15;;;;;;;7.70;2.00;;;;;;;;;;103845;1290;546312;-71
2023/11/15 07:56:50;;;;;;;5.80;1.50;;;;;;;;;;103626;1291;544932;-71
2023/11/15 08:00:35;;;;;;;10.90;2.50;;;;;;;;;;103664;1292;547766;-71
2023/11/15 08:04:06;;;;;;;16.20;4.80;;;;;;;;;;103795;1292;544907;-72
2023/11/15 08:07:42;;;;;;;13.50;4.20;;;;;;;;;;103697;1289;544959;-71
2023/11/15 08:11:23;;;;;;;9.90;2.70;;;;;;;;;;103694;1292;545037;-70
2023/11/15 08:14:57;;;;;;;10.30;3.00;;;;;;;;;;103712;1301;544754;-71
2023/11/15 08:18:34;;;;;;;11.10;2.80;;;;;;;;;;104029;1289;545754;-71
2023/11/15 08:22:13;;;;;;;9.30;2.20;;;;;;;;;;103731;1291;545100;-70
2023/11/15 08:25:51;;;;;;;9.20;2.80;;;;;;;;;;103698;1292;545417;-71
2023/11/15 08:29:27;;;;;;;6.60;1.40;;;;;;;;;;103778;1289;545084;-72
2023/11/15 08:33:08;;;;;;;5.60;1.40;;;;;;;;;;103584;1295;544945;-72
2023/11/15 08:36:44;;;;;;;2.70;0.70;;;;;;;;;;103770;1292;545063;-71
2023/11/15 08:40:24;;;;;;;2.30;0.90;;;;;;;;;;104380;1283;545448;-70
2023/11/15 08:43:57;;;;;;;5.00;1.20;;;;;;;;;;103772;1291;544951;-70
2023/11/15 08:47:35;;;;;;;3.90;1.20;;;;;;;;;;104552;1282;544988;-69
2023/11/15 08:51:19;;;;;;;7.30;1.60;;;;;;;;;;103646;1291;547949;-71
2023/11/15 08:54:49;;;;;;;7.00;1.90;;;;;;;;;;103801;1294;545777;-71
2023/11/15 08:58:27;;;;;;;4.90;1.40;;;;;;;;;;103753;1292;544944;-72
2023/11/15 09:02:05;;;;;;;4.60;0.90;;;;;;;;;;104308;1283;544832;-71
2023/11/15 09:05:44;;;;;;;5.30;1.30;;;;;;;;;;103693;1302;545470;-72
2023/11/15 09:09:19;;;;;;;4.50;1.20;;;;;;;;;;103771;1294;544739;-74
2023/11/15 09:12:58;;;;;;;6.10;1.40;;;;;;;;;;103819;1291;544805;-73
2023/11/15 09:16:34;;;;;;;6.50;1.50;;;;;;;;;;103628;1303;544973;-73
2023/11/15 09:20:21;;;;;;;4.10;1.10;;;;;;;;;;103781;1289;545592;-72
2023/11/15 09:23:48;;;;;;;4.00;1.00;;;;;;;;;;104182;1286;544741;-72
2023/11/15 09:27:28;;;;;;;5.90;1.60;;;;;;;;;;103794;1292;545045;-71
2023/11/15 09:31:05;;;;;;;4.40;1.10;;;;;;;;;;103872;1289;545605;-73
2023/11/15 09:34:41;;;;;;;4.20;1.20;;;;;;;;;;103588;1293;545054;-74
2023/11/15 09:38:14;;;;;;;3.90;1.10;;;;;;;;;;104669;1282;545606;-72
2023/11/15 09:41:57;;;;;;;4.70;1.90;;;;;;;;;;103949;1289;544936;-73
2023/11/15 09:45:37;;;;;;;4.00;1.00;;;;;;;;;;103846;1292;544786;-70
2023/11/15 09:49:17;;;;;;;5.00;1.20;;;;;;;;;;104270;1286;544823;-74
2023/11/15 09:52:49;;;;;;;5.60;1.50;;;;;;;;;;103818;1292;545074;-72
2023/11/15 09:56:26;;;;;;;12.30;3.30;;;;;;;;;;103823;1289;546119;-72
2023/11/15 10:00:08;;;;;;;13.00;3.60;;;;;;;;;;103869;1288;545481;-71
2023/11/15 10:03:41;;;;;;;9.70;2.70;;;;;;;;;;103787;1290;544930;-71
2023/11/15 10:07:25;;;;;;;7.90;2.40;;;;;;;;;;103761;1292;544841;-73
2023/11/15 10:11:04;;;;;;;8.90;3.40;;;;;;;;;;103756;1292;544909;-73
2023/11/15 10:14:30;;;;;;;7.10;2.10;;;;;;;;;;104697;1283;544764;-73
2023/11/15 10:18:12;;;;;;;7.30;2.60;;;;;;;;;;103920;1290;544809;-72
2023/11/15 10:21:55;;;;;;;4.90;1.40;;;;;;;;;;104301;1285;544716;-70
2023/11/15 10:25:26;;;;;;;3.90;1.50;;;;;;;;;;103568;1294;546003;-72
2023/11/15 10:29:07;;;;;;;3.40;1.10;;;;;;;;;;103873;1290;544827;-73
2023/11/15 10:32:46;;;;;;;3.10;0.70;;;;;;;;;;104062;1286;544792;-76
2023/11/15 10:36:21;;;;;;;3.20;1.00;;;;;;;;;;103689;1295;545020;-75
2023/11/15 10:39:56;;;;;;;2.90;1.00;;;;;;;;;;103757;1291;545054;-72
2023/11/15 10:43:33;;;;;;;3.00;0.90;;;;;;;;;;103826;1295;545573;-73
2023/11/15 10:47:12;;;;;;;3.50;1.20;;;;;;;;;;103802;1292;545871;-75
2023/11/15 10:50:52;;;;;;;3.60;0.80;;;;;;;;;;103789;1294;545209;-72
2023/11/15 10:54:24;;;;;;;4.80;0.90;;;;;;;;;;103723;1292;546363;-74
2023/11/15 10:58:04;;;;;;;2.80;0.80;;;;;;;;;;103780;1290;544962;-73
2023/11/15 11:01:41;;;;;;;3.00;1.00;;;;;;;;;;103711;1292;546071;-73
2023/11/15 11:05:24;;;;;;;4.90;1.40;;;;;;;;;;103751;1289;545824;-74
2023/11/15 11:09:21;;;;;;;3.40;1.00;;;;;;;;;;103774;1291;545069;-72
2023/11/15 11:12:36;;;;;;;4.70;1.10;;;;;;;;;;103968;1288;545527;-74
2023/11/15 11:16:28;;;;;;;14.30;6.90;;;;;;;;;;103632;1294;545028;-75
2023/11/15 11:19:51;;;;;;;24.00;10.20;;;;;;;;;;103698;1292;547907;-75
2023/11/15 11:23:26;;;;;;;13.00;6.10;;;;;;;;;;103824;1289;545430;-74
2023/11/15 11:27:11;;;;;;;9.40;4.00;;;;;;;;;;103709;1291;547944;-72
2023/11/15 11:30:43;;;;;;;19.50;10.10;;;;;;;;;;104093;1289;544731;-73
2023/11/15 11:34:24;;;;;;;17.90;7.80;;;;;;;;;;103677;1291;548470;-72
2023/11/15 11:37:59;;;;;;;12.90;5.50;;;;;;;;;;104114;1286;545021;-74
2023/11/15 11:41:33;;;;;;;7.30;1.70;;;;;;;;;;103935;1292;545048;-74
2023/11/15 11:45:12;;;;;;;4.80;1.30;;;;;;;;;;103808;1292;545583;-72
2023/11/15 11:48:44;;;;;;;6.50;1.70;;;;;;;;;;104064;1289;544936;-73
2023/11/15 11:52:25;;;;;;;6.60;1.40;;;;;;;;;;103852;1290;545347;-73
2023/11/15 11:56:05;;;;;;;3.90;1.30;;;;;;;;;;103597;1298;545536;-75
2023/11/15 11:59:39;;;;;;;6.40;1.90;;;;;;;;;;103808;1289;544868;-74
2023/11/15 12:03:18;;;;;;;5.80;1.60;;;;;;;;;;103714;1291;545528;-73
2023/11/15 12:06:51;;;;;;;5.10;1.20;;;;;;;;;;103843;1295;544852;-74
2023/11/15 12:10:34;;;;;;;4.40;1.30;;;;;;;;;;103719;1293;545469;-72
2023/11/15 12:14:12;;;;;;;2.30;0.70;;;;;;;;;;103863;1289;545631;-73
2023/11/15 12:17:47;;;;;;;2.50;0.80;;;;;;;;;;103766;1289;544785;-75
2023/11/15 12:21:24;;;;;;;2.70;0.90;;;;;;;;;;103831;1292;544839;-73
2023/11/15 12:25:03;;;;;;;2.70;0.60;;;;;;;;;;103603;1297;544769;-72
2023/11/15 12:28:39;;;;;;;2.10;0.60;;;;;;;;;;103842;1290;545476;-73
2023/11/15 12:32:13;;;;;;;3.60;0.90;;;;;;;;;;103875;1289;544960;-73
2023/11/15 12:35:54;;;;;;;7.10;1.60;;;;;;;;;;103590;1306;544787;-74
2023/11/15 12:39:38;;;;;;;4.50;1.00;;;;;;;;;;103849;1294;545534;-73
2023/11/15 12:43:18;;;;;;;6.70;1.40;;;;;;;;;;103831;1292;544807;-74
2023/11/15 12:46:51;;;;;;;5.10;1.20;;;;;;;;;;103885;1290;544850;-72
2023/11/15 12:50:26;;;;;;;6.40;1.80;;;;;;;;;;103822;1289;545076;-72
2023/11/15 12:54:03;;;;;;;3.40;1.20;;;;;;;;;;103607;1292;545442;-72
2023/11/15 12:57:53;;;;;;;4.70;1.40;;;;;;;;;;103998;1289;544892;-71
2023/11/15 13:01:18;;;;;;;6.90;2.40;;;;;;;;;;103541;1295;545695;-72
2023/11/15 13:04:54;;;;;;;6.00;2.00;;;;;;;;;;103546;1294;545583;-74
2023/11/15 13:08:31;;;;;;;6.10;2.20;;;;;;;;;;104320;1284;544760;-71
2023/11/15 13:12:10;;;;;;;8.50;3.20;;;;;;;;;;103954;1292;545095;-71
2023/11/15 13:15:42;;;;;;;3.40;1.10;;;;;;;;;;103878;1297;545344;-73
2023/11/15 13:19:25;;;;;;;3.30;1.10;;;;;;;;;;103819;1289;544857;-72
2023/11/15 13:23:01;;;;;;;6.10;1.00;;;;;;;;;;103884;1289;544886;-72
2023/11/15 13:26:45;;;;;;;4.20;1.00;;;;;;;;;;103649;1295;547964;-73
2023/11/15 13:30:16;;;;;;;5.10;1.60;;;;;;;;;;103810;1289;545649;-73
2023/11/15 13:33:54;;;;;;;4.60;1.40;;;;;;;;;;103788;1295;544921;-75
2023/11/15 13:37:32;;;;;;;6.20;1.90;;;;;;;;;;103842;1288;544787;-74
2023/11/15 13:41:08;;;;;;;6.70;2.20;;;;;;;;;;103784;1292;545263;-73
2023/11/15 13:44:48;;;;;;;16.00;6.20;;;;;;;;;;104315;1288;545403;-71
2023/11/15 13:48:23;;;;;;;9.70;3.30;;;;;;;;;;104463;1282;545783;-72
2023/11/15 13:52:01;;;;;;;3.40;1.20;;;;;;;;;;104295;1286;544952;-72
2023/11/15 13:55:38;;;;;;;5.50;1.90;;;;;;;;;;103788;1292;545810;-72
2023/11/15 13:59:15;;;;;;;6.40;2.00;;;;;;;;;;103864;1289;544964;-72
2023/11/15 14:03:06;;;;;;;9.70;3.60;;;;;;;;;;103947;1288;547935;-73
2023/11/15 14:06:31;;;;;;;11.70;4.10;;;;;;;;;;103574;1297;545599;-72
2023/11/15 14:10:09;;;;;;;10.60;2.90;;;;;;;;;;103771;1290;544965;-73
2023/11/15 14:13:47;;;;;;;8.30;2.10;;;;;;;;;;103821;1292;544837;-73
2023/11/15 14:17:23;;;;;;;5.60;1.40;;;;;;;;;;103769;1290;546974;-73
2023/11/15 14:21:00;;;;;;;14.60;7.70;;;;;;;;;;103940;1289;544839;-73
2023/11/15 14:24:38;;;;;;;13.00;4.30;;;;;;;;;;103892;1294;545375;-72
2023/11/15 14:28:16;;;;;;;8.50;3.10;;;;;;;;;;103743;1289;545119;-73
2023/11/15 14:31:53;;;;;;;6.80;2.40;;;;;;;;;;103804;1292;545709;-72
2023/11/15 14:35:30;;;;;;;6.60;2.30;;;;;;;;;;104128;1289;544798;-71
2023/11/15 14:39:08;;;;;;;4.60;1.90;;;;;;;;;;103791;1292;545464;-73
2023/11/15 14:42:46;;;;;;;8.40;2.70;;;;;;;;;;103557;1295;545911;-73
2023/11/15 14:46:25;;;;;;;6.70;2.30;;;;;;;;;;103834;1292;546415;-72
2023/11/15 14:50:01;;;;;;;6.90;1.20;;;;;;;;;;103645;1293;545336;-72
2023/11/15 14:53:51;;;;;;;8.70;3.10;;;;;;;;;;104210;1288;545416;-72
2023/11/15 14:57:12;;;;;;;8.00;3.30;;;;;;;;;;103831;1289;544956;-73
2023/11/15 15:00:53;;;;;;;8.00;2.80;;;;;;;;;;103848;1292;545741;-73
2023/11/15 15:04:33;;;;;;;6.60;1.80;;;;;;;;;;103589;1294;545037;-73
2023/11/15 15:08:11;;;;;;;6.50;2.00;;;;;;;;;;103811;1290;545148;-73
2023/11/15 15:11:46;;;;;;;8.90;2.30;;;;;;;;;;104073;1289;545546;-73
2023/11/15 15:15:28;;;;;;;6.10;2.10;;;;;;;;;;103674;1292;548005;-72
2023/11/15 15:18:56;;;;;;;7.80;2.60;;;;;;;;;;103919;1289;545090;-73
2023/11/15 15:22:37;;;;;;;11.60;4.80;;;;;;;;;;103959;1290;545430;-72
2023/11/15 15:26:15;;;;;;;8.50;2.60;;;;;;;;;;103684;1292;545183;-73
2023/11/15 15:29:52;;;;;;;7.20;2.30;;;;;;;;;;103802;1292;545008;-74
2023/11/15 15:33:30;;;;;;;7.60;2.10;;;;;;;;;;103749;1292;545448;-72
2023/11/15 15:37:08;;;;;;;14.20;8.70;;;;;;;;;;103561;1295;545706;-73
2023/11/15 15:40:48;;;;;;;8.70;3.30;;;;;;;;;;103612;1292;547782;-73
2023/11/15 15:44:22;;;;;;;6.20;2.70;;;;;;;;;;103854;1294;545042;-73
2023/11/15 15:47:59;;;;;;;6.60;2.80;;;;;;;;;;103764;1292;545157;-73
2023/11/15 15:51:38;;;;;;;5.50;2.30;;;;;;;;;;103764;1291;544940;-72
2023/11/15 15:55:14;;;;;;;6.50;2.20;;;;;;;;;;103638;1305;546315;-72
2023/11/15 15:58:53;;;;;;;5.30;1.80;;;;;;;;;;103663;1291;545221;-72
2023/11/15 16:02:34;;;;;;;7.60;3.30;;;;;;;;;;103835;1288;545806;-72
2023/11/15 16:06:07;;;;;;;9.80;5.70;;;;;;;;;;103620;1297;544856;-72
2023/11/15 16:09:45;;;;;;;6.90;2.40;;;;;;;;;;103736;1292;544919;-72
2023/11/15 16:13:22;;;;;;;8.10;2.80;;;;;;;;;;103528;1294;544716;-73
2023/11/15 16:16:59;;;;;;;8.10;3.10;;;;;;;;;;103705;1295;546061;-72
2023/11/15 16:20:38;;;;;;;6.90;2.80;;;;;;;;;;103818;1291;545372;-73
2023/11/15 16:24:14;;;;;;;7.30;3.40;;;;;;;;;;103771;1292;546042;-73
2023/11/15 16:27:52;;;;;;;6.90;2.60;;;;;;;;;;103780;1289;545503;-73
2023/11/15 16:31:29;;;;;;;6.90;2.30;;;;;;;;;;103985;1288;545799;-71
2023/11/15 16:35:08;;;;;;;6.40;2.10;;;;;;;;;;103806;1293;544946;-72
2023/11/15 16:38:44;;;;;;;6.60;2.30;;;;;;;;;;103645;1293;544781;-71
2023/11/15 16:42:22;;;;;;;7.40;2.20;;;;;;;;;;103908;1289;545976;-73
2023/11/15 16:45:59;;;;;;;6.50;2.30;;;;;;;;;;103803;1292;545329;-72
2023/11/15 16:49:36;;;;;;;8.80;3.90;;;;;;;;;;103805;1289;545478;-73
2023/11/15 16:53:14;;;;;;;18.20;9.60;;;;;;;;;;103955;1288;545829;-73
2023/11/15 16:56:51;;;;;;;12.40;6.90;;;;;;;;;;103638;1297;545698;-71
2023/11/15 17:00:30;;;;;;;9.90;3.90;;;;;;;;;;103537;1293;544886;-73
2023/11/15 17:04:08;;;;;;;12.80;5.30;;;;;;;;;;103711;1291;545648;-72
2023/11/15 17:07:44;;;;;;;15.00;5.90;;;;;;;;;;104153;1286;545151;-73
2023/11/15 17:11:23;;;;;;;16.10;7.60;;;;;;;;;;103806;1292;545049;-72
2023/11/15 17:14:59;;;;;;;11.10;4.80;;;;;;;;;;103857;1290;544866;-72
2023/11/15 17:18:36;;;;;;;10.60;5.40;;;;;;;;;;103831;1290;544793;-73
2023/11/15 17:22:14;;;;;;;10.80;4.70;;;;;;;;;;103821;1289;544992;-73
2023/11/15 17:25:53;;;;;;;10.90;4.60;;;;;;;;;;103864;1292;545009;-73
2023/11/15 17:29:29;;;;;;;10.20;4.60;;;;;;;;;;103695;1298;544777;-74
2023/11/15 17:33:11;;;;;;;8.90;3.10;;;;;;;;;;103765;1292;548411;-72
2023/11/15 17:36:40;;;;;;;9.70;3.00;;;;;;;;;;103956;1289;545391;-72
2023/11/15 17:40:21;;;;;;;8.30;2.50;;;;;;;;;;103783;1292;544768;-71
2023/11/15 17:43:58;;;;;;;6.50;2.50;;;;;;;;;;103865;1289;544981;-71
2023/11/15 17:47:36;;;;;;;7.80;2.40;;;;;;;;;;103873;1302;546132;-71
2023/11/15 17:51:14;;;;;;;7.00;2.40;;;;;;;;;;103842;1289;545731;-73
2023/11/15 17:54:51;;;;;;;9.00;3.00;;;;;;;;;;105865;1289;544976;-70
2023/11/15 17:58:29;;;;;;;6.40;2.50;;;;;;;;;;103783;1292;544784;-73
2023/11/15 18:02:06;;;;;;;8.80;2.60;;;;;;;;;;103858;1292;545801;-73
2023/11/15 18:05:43;;;;;;;6.60;2.10;;;;;;;;;;103707;1292;544973;-72
2023/11/15 18:09:22;;;;;;;6.80;2.30;;;;;;;;;;103855;1289;544745;-72
2023/11/15 18:12:58;;;;;;;7.40;2.40;;;;;;;;;;103893;1288;546042;-73
2023/11/15 18:16:36;;;;;;;10.30;4.20;;;;;;;;;;104085;1289;544887;-73
2023/11/15 18:20:12;;;;;;;9.70;4.00;;;;;;;;;;103900;1292;544847;-73
2023/11/15 18:23:51;;;;;;;9.60;3.90;;;;;;;;;;104547;1289;544795;-74
2023/11/15 18:27:28;;;;;;;9.20;3.80;;;;;;;;;;105422;1285;546057;-73
2023/11/15 18:31:06;;;;;;;10.70;5.20;;;;;;;;;;104760;1282;545877;-72
2023/11/15 18:34:44;;;;;;;9.40;3.50;;;;;;;;;;105290;1286;546073;-72
2023/11/15 18:38:16;;;;;;;8.80;3.30;;;;;;;;;;104094;1289;544960;-73
2023/11/15 18:41:59;;;;;;;7.10;2.90;;;;;;;;;;104827;1282;545977;-73
2023/11/15 18:45:35;;;;;;;7.90;2.90;;;;;;;;;;104303;1290;544930;-73
2023/11/15 18:49:09;;;;;;;9.20;3.50;;;;;;;;;;104094;1290;544713;-72
2023/11/15 18:52:51;;;;;;;9.90;3.60;;;;;;;;;;104153;1290;545010;-71
2023/11/15 18:56:27;;;;;;;31.40;15.90;;;;;;;;;;103668;1295;545040;-72
2023/11/15 19:00:11;;;;;;;113.60;50.50;;;;;;;;;;103597;1294;546230;-72
2023/11/15 19:03:43;;;;;;;70.40;37.10;;;;;;;;;;103917;1295;545357;-72
2023/11/15 19:07:20;;;;;;;51.70;26.60;;;;;;;;;;103833;1292;545567;-73
2023/11/15 19:10:58;;;;;;;47.50;24.60;;;;;;;;;;103853;1289;545642;-72
2023/11/15 19:14:42;;;;;;;52.30;33.00;;;;;;;;;;103484;1295;547855;-73
2023/11/15 19:18:13;;;;;;;31.30;17.80;;;;;;;;;;103811;1292;545461;-73
2023/11/15 19:21:54;;;;;;;33.50;18.10;;;;;;;;;;103651;1292;544996;-72
2023/11/15 19:25:28;;;;;;;25.30;12.10;;;;;;;;;;103556;1295;544771;-71
2023/11/15 19:29:11;;;;;;;107.60;42.10;;;;;;;;;;104043;1289;547786;-73
2023/11/15 19:32:48;;;;;;;120.80;48.20;;;;;;;;;;103313;1295;547909;-72
2023/11/15 19:36:19;;;;;;;85.90;37.00;;;;;;;;;;104309;1285;546381;-72
2023/11/15 19:40:19;;;;;;;68.90;30.20;;;;;;;;;;103604;1292;545094;-73
2023/11/15 19:43:58;;;;;;;30.60;14.90;;;;;;;;;;103757;1291;548268;-72
2023/11/15 19:47:08;;;;;;;14.80;7.70;;;;;;;;;;104009;1300;544961;-71
2023/11/15 19:50:54;;;;;;;10.80;7.10;;;;;;;;;;103697;1292;544999;-71
2023/11/15 19:54:27;;;;;;;11.70;6.10;;;;;;;;;;103527;1294;544826;-73
2023/11/15 19:58:08;;;;;;;10.50;5.00;;;;;;;;;;103902;1296;545018;-73
2023/11/15 20:01:47;;;;;;;8.80;4.50;;;;;;;;;;103571;1295;545642;-72
2023/11/15 20:05:39;;;;;;;9.90;5.00;;;;;;;;;;103752;1294;548388;-73
2023/11/15 20:08:57;;;;;;;10.60;5.50;;;;;;;;;;104278;1286;544954;-72
2023/11/15 20:12:36;;;;;;;18.40;8.60;;;;;;;;;;104076;1289;545124;-73
2023/11/15 20:16:12;;;;;;;20.20;10.70;;;;;;;;;;103721;1295;545659;-73
2023/11/15 20:19:51;;;;;;;18.60;10.90;;;;;;;;;;103869;1289;545774;-72
2023/11/15 20:23:23;;;;;;;16.10;8.20;;;;;;;;;;103831;1292;545563;-72
2023/11/15 20:27:05;;;;;;;15.30;8.10;;;;;;;;;;103610;1305;544926;-73
2023/11/15 20:30:43;;;;;;;9.10;4.10;;;;;;;;;;103812;1289;545128;-72
2023/11/15 20:34:20;;;;;;;8.60;3.90;;;;;;;;;;103867;1292;544934;-72
2023/11/15 20:37:57;;;;;;;7.80;3.20;;;;;;;;;;103841;1288;544858;-71
2023/11/15 20:41:35;;;;;;;8.50;3.20;;;;;;;;;;103841;1292;544988;-73
2023/11/15 20:45:12;;;;;;;9.80;3.40;;;;;;;;;;104580;1282;544966;-72
2023/11/15 20:48:53;;;;;;;6.20;2.50;;;;;;;;;;103741;1291;544754;-73
2023/11/15 20:52:27;;;;;;;7.40;2.40;;;;;;;;;;104114;1291;544973;-72
2023/11/15 20:56:04;;;;;;;5.90;2.00;;;;;;;;;;104150;1289;544816;-72
2023/11/15 20:59:41;;;;;;;8.80;2.80;;;;;;;;;;103874;1290;545850;-71